createdAt,value
2019-05-15T00:00:43.779Z,2.51
2019-05-15T00:02:27.947Z,2.62
2019-05-15T00:04:09.266Z,2.75
2019-05-15T00:05:51.363Z,2.69
2019-05-15T00:07:32.434Z,2.63
2019-05-15T00:09:12.314Z,2.67
2019-05-15T00:10:52.185Z,2.68
2019-05-15T00:12:32.054Z,2.47
2019-05-15T00:14:12.310Z,2.6
2019-05-15T00:15:52.216Z,2.41
2019-05-15T00:17:32.013Z,2.5
2019-05-15T00:19:12.306Z,2.54
2019-05-15T00:22:40.664Z,2.54
2019-05-15T00:24:20.743Z,2.72
2019-05-15T00:26:02.053Z,2.59
2019-05-15T00:27:42.486Z,2.49
2019-05-15T00:29:23.290Z,2.67
2019-05-15T00:31:03.054Z,2.67
2019-05-15T00:32:42.474Z,2.81
2019-05-15T00:34:22.242Z,2.63
2019-05-15T00:36:02.286Z,2.69
2019-05-15T00:37:42.350Z,2.49
2019-05-15T00:39:22.323Z,2.52
2019-05-15T00:41:01.851Z,2.58
2019-05-15T00:44:21.418Z,2.65
2019-05-15T00:46:01.916Z,2.53
2019-05-15T00:47:42.949Z,2.48
2019-05-15T00:49:22.327Z,2.56
2019-05-15T00:51:02.328Z,2.37
2019-05-15T00:52:42.529Z,2.43
2019-05-15T00:54:22.629Z,2.58
2019-05-15T00:56:02.112Z,2.48
2019-05-15T00:57:42.650Z,2.47
2019-05-15T01:01:13.408Z,2.67
2019-05-15T01:02:52.840Z,2.37
2019-05-15T01:04:32.321Z,2.36
2019-05-15T01:06:11.810Z,2.44
2019-05-15T01:07:51.283Z,2.36
2019-05-15T01:09:32.715Z,2.46
2019-05-15T01:11:12.546Z,2.53
2019-05-15T01:12:51.980Z,2.46
2019-05-15T01:14:31.452Z,2.56
2019-05-15T01:16:12.690Z,2.52
2019-05-15T01:17:52.520Z,2.44
2019-05-15T01:19:32.128Z,2.61
2019-05-15T01:21:11.351Z,2.47
2019-05-15T01:22:51.882Z,2.62
2019-05-15T01:24:32.776Z,2.74
2019-05-15T01:26:13.265Z,2.56
2019-05-15T01:27:52.674Z,2.63
2019-05-15T01:29:49.104Z,2.51
2019-05-15T01:31:29.758Z,2.67
2019-05-15T01:33:11.729Z,2.61
2019-05-15T01:34:52.372Z,2.78
2019-05-15T01:36:32.281Z,2.8
2019-05-15T01:38:11.689Z,2.95
2019-05-15T01:39:52.016Z,2.77
2019-05-15T01:41:31.471Z,2.83
2019-05-15T01:45:04.634Z,3.13
2019-05-15T01:46:48.245Z,3.03
2019-05-15T01:48:30.078Z,3.14
2019-05-15T01:52:00.399Z,3.14
2019-05-15T01:53:41.938Z,3.14
2019-05-15T01:55:21.476Z,3.29
2019-05-15T01:57:02.084Z,3.14
2019-05-15T01:58:41.026Z,3
2019-05-15T02:02:12.959Z,3.24
2019-05-15T02:03:52.630Z,3.17
2019-05-15T02:05:32.056Z,3.33
2019-05-15T02:07:11.686Z,3.25
2019-05-15T02:08:53.109Z,3.21
2019-05-15T02:10:32.537Z,3.35
2019-05-15T02:12:12.126Z,3.46
2019-05-15T02:13:51.584Z,3.51
2019-05-15T02:15:31.907Z,3.3
2019-05-15T02:18:59.964Z,3.3
2019-05-15T02:20:41.459Z,3.21
2019-05-15T02:22:22.213Z,3.34
2019-05-15T02:24:02.090Z,3.31
2019-05-15T02:25:42.228Z,3.12
2019-05-15T02:27:22.131Z,3.07
2019-05-15T02:29:04.886Z,3.41
2019-05-15T02:30:49.436Z,3.18
2019-05-15T02:32:33.274Z,3.19
2019-05-15T02:34:13.775Z,3.22
2019-05-15T02:35:53.801Z,3.24
2019-05-15T02:37:33.225Z,3.21
2019-05-15T02:39:12.670Z,3.07
2019-05-15T02:40:52.912Z,2.98
2019-05-15T02:42:32.628Z,3.07
2019-05-15T02:44:14.449Z,3.19
2019-05-15T02:45:53.949Z,3.13
2019-05-15T02:47:33.251Z,3.18
2019-05-15T02:49:12.762Z,3.2
2019-05-15T02:50:53.616Z,3.17
2019-05-15T02:52:33.107Z,3.3
2019-05-15T02:54:13.873Z,3.17
2019-05-15T02:56:05.148Z,3.22
2019-05-15T02:57:49.424Z,3.27
2019-05-15T02:59:32.184Z,3.24
2019-05-15T03:01:12.729Z,3.25
2019-05-15T03:02:53.282Z,3.25
2019-05-15T03:04:32.721Z,3.12
2019-05-15T03:06:13.229Z,3.04
2019-05-15T03:07:52.773Z,3.14
2019-05-15T03:09:33.149Z,3.21
2019-05-15T03:11:13.267Z,3.03
2019-05-15T03:12:52.874Z,2.93
2019-05-15T03:16:20.905Z,3.3
2019-05-15T03:18:03.028Z,3.31
2019-05-15T03:19:42.842Z,3.03
2019-05-15T03:21:22.460Z,3.06
2019-05-15T03:23:03.087Z,3.19
2019-05-15T03:24:43.181Z,2.98
2019-05-15T03:26:23.209Z,3.09
2019-05-15T03:28:02.944Z,3.24
2019-05-15T03:29:43.866Z,3.12
2019-05-15T03:32:17.185Z,3.31
2019-05-15T03:34:37.333Z,3.25
2019-05-15T03:36:34.136Z,3.21
2019-05-15T03:38:13.593Z,3.01
2019-05-15T03:39:55.245Z,3.1
2019-05-15T03:41:40.873Z,3.07
2019-05-15T03:43:21.914Z,2.89
2019-05-15T03:45:02.958Z,3.02
2019-05-15T03:46:43.343Z,3.01
2019-05-15T03:48:23.259Z,3.16
2019-05-15T03:50:03.521Z,3.2
2019-05-15T03:51:51.597Z,3.18
2019-05-15T03:55:14.292Z,3.16
2019-05-15T03:56:58.439Z,2.85
2019-05-15T03:58:41.748Z,2.76
2019-05-15T04:00:22.842Z,2.9
2019-05-15T04:02:03.293Z,2.98
2019-05-15T04:03:42.771Z,2.67
2019-05-15T04:05:23.226Z,2.9
2019-05-15T04:07:03.297Z,2.84
2019-05-15T04:08:42.814Z,2.85
2019-05-15T04:10:23.338Z,2.74
2019-05-15T04:12:03.369Z,2.92
2019-05-15T04:13:43.275Z,2.97
2019-05-15T04:15:22.788Z,2.84
2019-05-15T04:17:03.000Z,2.91
2019-05-15T04:18:43.065Z,2.84
2019-05-15T04:22:03.541Z,2.99
2019-05-15T04:23:43.034Z,2.96
2019-05-15T04:25:22.496Z,3.01
2019-05-15T04:27:10.450Z,3.13
2019-05-15T04:30:39.169Z,3.19
2019-05-15T04:32:21.758Z,3.07
2019-05-15T04:34:02.666Z,3
2019-05-15T04:35:43.541Z,3.35
2019-05-15T04:37:22.949Z,3.16
2019-05-15T04:39:02.447Z,3.19
2019-05-15T04:40:42.595Z,3.05
2019-05-15T04:42:23.692Z,3.67
2019-05-15T04:45:51.328Z,3.9
2019-05-15T04:47:33.615Z,3.57
2019-05-15T04:49:13.089Z,3.63
2019-05-15T04:50:53.148Z,3.74
2019-05-15T04:54:13.282Z,3.66
2019-05-15T04:55:52.727Z,3.5
2019-05-15T04:57:39.960Z,3.58
2019-05-15T04:59:23.051Z,3.38
2019-05-15T05:01:03.335Z,3.19
2019-05-15T05:02:43.642Z,3.36
2019-05-15T05:04:23.102Z,3.26
2019-05-15T05:06:02.715Z,3.34
2019-05-15T05:07:42.751Z,3.31
2019-05-15T05:09:23.203Z,3.75
2019-05-15T05:11:02.693Z,4.23
2019-05-15T05:14:31.171Z,4.21
2019-05-15T05:16:12.414Z,4.13
2019-05-15T05:17:52.339Z,4.04
2019-05-15T05:19:31.918Z,3.92
2019-05-15T05:21:11.278Z,4.06
2019-05-15T05:22:51.676Z,3.99
2019-05-15T05:24:31.426Z,3.99
2019-05-15T05:26:14.223Z,4.17
2019-05-15T05:27:58.024Z,4.22
2019-05-15T05:29:38.584Z,4.25
2019-05-15T05:31:20.007Z,4.25
2019-05-15T05:33:01.262Z,4.36
2019-05-15T05:34:42.560Z,4.5
2019-05-15T05:36:21.977Z,4.34
2019-05-15T05:38:01.725Z,4.27
2019-05-15T05:41:24.478Z,4.59
2019-05-15T05:43:06.011Z,4.58
2019-05-15T05:44:48.835Z,4.12
2019-05-15T05:46:31.344Z,3.52
2019-05-15T05:48:12.326Z,3.84
2019-05-15T05:49:52.255Z,3.9
2019-05-15T05:51:31.757Z,3.7
2019-05-15T05:53:11.555Z,3.84
2019-05-15T05:54:52.423Z,4.95
2019-05-15T05:56:32.142Z,3.91
2019-05-15T05:58:11.594Z,3.67
2019-05-15T05:59:52.426Z,3.51
2019-05-15T06:01:31.832Z,3.58
2019-05-15T06:03:19.233Z,3.47
2019-05-15T06:05:01.510Z,3.48
2019-05-15T06:06:41.772Z,3.48
2019-05-15T06:08:28.080Z,3.75
2019-05-15T06:10:10.739Z,4.69
2019-05-15T06:11:52.460Z,4.62
2019-05-15T06:13:32.605Z,6.4
2019-05-15T06:15:12.479Z,4.15
2019-05-15T06:16:51.903Z,3.52
2019-05-15T06:18:31.629Z,3.49
2019-05-15T06:20:11.571Z,3.73
2019-05-15T06:22:02.626Z,3.64
2019-05-15T06:24:03.405Z,3.58
2019-05-15T06:25:51.856Z,3.79
2019-05-15T06:27:31.314Z,3.64
2019-05-15T06:29:14.150Z,4.02
2019-05-15T06:31:04.081Z,4.3
2019-05-15T06:32:43.539Z,3.95
2019-05-15T06:34:51.841Z,4.02
2019-05-15T06:36:32.378Z,3.71
2019-05-15T06:38:11.801Z,3.74
2019-05-15T06:41:35.682Z,3.94
2019-05-15T06:43:19.079Z,3.71
2019-05-15T06:46:44.381Z,3.64
2019-05-15T06:48:31.594Z,3.76
2019-05-15T06:50:11.917Z,3.62
2019-05-15T06:51:52.093Z,3.73
2019-05-15T06:53:32.303Z,3.89
2019-05-15T06:55:12.719Z,3.8
2019-05-15T06:56:52.632Z,4.22
2019-05-15T06:58:32.347Z,3.88
2019-05-15T07:00:11.779Z,4.27
2019-05-15T07:01:51.530Z,3.69
2019-05-15T07:03:32.868Z,3.76
2019-05-15T07:05:12.250Z,3.57
2019-05-15T07:06:52.318Z,3.83
2019-05-15T07:08:31.513Z,3.46
2019-05-15T07:10:12.470Z,3.62
2019-05-15T07:11:51.980Z,2.85
2019-05-15T07:13:32.354Z,3.09
2019-05-15T07:15:11.861Z,3.22
2019-05-15T07:16:52.103Z,3.14
2019-05-15T07:18:31.770Z,3.18
2019-05-15T07:20:11.993Z,3.06
2019-05-15T07:21:52.112Z,3
2019-05-15T07:23:33.987Z,3.06
2019-05-15T07:25:18.805Z,2.8
2019-05-15T07:27:00.906Z,2.92
2019-05-15T07:28:41.322Z,3.02
2019-05-15T07:30:21.520Z,2.78
2019-05-15T07:32:01.832Z,2.82
2019-05-15T07:33:48.805Z,2.88
2019-05-15T07:35:30.490Z,2.84
2019-05-15T07:37:13.787Z,2.75
2019-05-15T07:38:53.293Z,3.15
2019-05-15T07:40:33.350Z,2.87
2019-05-15T07:42:12.741Z,2.49
2019-05-15T07:43:52.899Z,2.56
2019-05-15T07:45:42.453Z,2.53
2019-05-15T07:47:22.868Z,2.64
2019-05-15T07:49:02.364Z,2.7
2019-05-15T07:50:42.278Z,2.74
2019-05-15T07:52:22.793Z,2.7
2019-05-15T07:54:05.790Z,2.63
2019-05-15T07:55:49.890Z,2.55
2019-05-15T07:57:33.102Z,2.73
2019-05-15T07:59:12.744Z,2.66
2019-05-15T08:00:52.855Z,2.49
2019-05-15T08:02:32.303Z,2.51
2019-05-15T08:04:34.029Z,2.59
2019-05-15T08:06:28.715Z,2.52
2019-05-15T08:08:10.631Z,2.04
2019-05-15T08:09:52.065Z,1.91
2019-05-15T08:11:31.350Z,1.87
2019-05-15T08:13:12.350Z,1.85
2019-05-15T08:14:54.319Z,1.86
2019-05-15T08:16:36.156Z,1.96
2019-05-15T08:20:01.670Z,1.79
2019-05-15T08:21:42.023Z,1.6
2019-05-15T08:23:22.591Z,1.56
2019-05-15T08:25:02.629Z,1.43
2019-05-15T08:26:50.430Z,1.44
2019-05-15T08:28:32.035Z,1.52
2019-05-15T08:30:12.205Z,1.57
2019-05-15T08:31:51.901Z,1.47
2019-05-15T08:33:30.851Z,1.73
2019-05-15T08:35:12.687Z,1.54
2019-05-15T08:36:52.354Z,1.67
2019-05-15T08:38:32.393Z,1.83
2019-05-15T08:40:12.051Z,1.57
2019-05-15T08:41:51.850Z,1.7
2019-05-15T08:43:34.193Z,1.72
2019-05-15T08:45:18.667Z,1.48
2019-05-15T08:47:00.690Z,1.72
2019-05-15T08:48:41.651Z,1.61
2019-05-15T08:50:21.710Z,1.8
2019-05-15T08:52:01.761Z,1.71
2019-05-15T08:53:41.425Z,1.54
2019-05-15T08:55:24.656Z,1.58
2019-05-15T08:57:08.426Z,1.57
2019-05-15T08:58:50.314Z,1.74
2019-05-15T09:00:32.175Z,1.6
2019-05-15T09:02:11.641Z,1.97
2019-05-15T09:03:52.319Z,1.78
2019-05-15T09:05:31.921Z,1.77
2019-05-15T09:07:12.684Z,1.72
2019-05-15T09:08:52.555Z,1.65
2019-05-15T09:10:32.046Z,1.73
2019-05-15T09:12:11.832Z,1.73
2019-05-15T09:14:01.090Z,1.74
2019-05-15T09:15:42.984Z,1.75
2019-05-15T09:17:22.574Z,1.74
2019-05-15T09:19:02.828Z,1.78
2019-05-15T09:20:42.316Z,1.78
2019-05-15T09:22:22.250Z,1.61
2019-05-15T09:24:02.346Z,1.74
2019-05-15T09:25:42.438Z,1.74
2019-05-15T09:29:02.074Z,1.92
2019-05-15T09:32:23.001Z,1.66
2019-05-15T09:34:02.507Z,1.63
2019-05-15T09:35:42.728Z,1.64
2019-05-15T09:37:22.132Z,1.62
2019-05-15T09:39:02.004Z,1.8
2019-05-15T09:40:52.113Z,1.65
2019-05-15T09:42:31.979Z,1.6
2019-05-15T09:44:11.447Z,1.48
2019-05-15T09:45:52.798Z,1.68
2019-05-15T09:47:33.118Z,1.53
2019-05-15T09:49:12.696Z,1.61
2019-05-15T09:50:52.839Z,1.73
2019-05-15T09:52:33.505Z,1.56
2019-05-15T09:54:13.078Z,1.57
2019-05-15T09:55:53.105Z,1.66
2019-05-15T09:57:33.594Z,1.48
2019-05-15T09:59:13.196Z,1.56
2019-05-15T10:00:55.474Z,1.58
2019-05-15T10:02:34.865Z,1.47
2019-05-15T10:04:18.954Z,1.48
2019-05-15T10:05:58.697Z,1.6
2019-05-15T10:07:40.331Z,1.52
2019-05-15T10:09:22.454Z,1.47
2019-05-15T10:11:02.055Z,1.66
2019-05-15T10:12:42.377Z,1.62
2019-05-15T10:16:05.195Z,1.9
2019-05-15T10:17:48.707Z,1.74
2019-05-15T10:19:32.465Z,1.54
2019-05-15T10:21:12.390Z,1.46
2019-05-15T10:22:54.718Z,1.71
2019-05-15T10:24:36.997Z,1.56
2019-05-15T10:26:19.224Z,1.54
2019-05-15T10:28:01.263Z,1.58
2019-05-15T10:29:42.288Z,1.67
2019-05-15T10:31:22.924Z,1.93
2019-05-15T10:33:02.492Z,1.78
2019-05-15T10:34:42.001Z,1.59
2019-05-15T10:36:22.343Z,1.66
2019-05-15T10:38:02.630Z,1.73
2019-05-15T10:39:42.191Z,1.69
2019-05-15T10:41:22.266Z,1.71
2019-05-15T10:43:02.841Z,1.66
2019-05-15T10:44:42.665Z,1.68
2019-05-15T10:46:22.570Z,1.66
2019-05-15T10:48:02.083Z,2.03
2019-05-15T10:49:42.444Z,2
2019-05-15T10:53:02.385Z,1.63
2019-05-15T10:54:41.838Z,2.09
2019-05-15T10:56:22.045Z,1.94
2019-05-15T10:58:01.777Z,1.74
2019-05-15T10:59:41.492Z,1.83
2019-05-15T11:01:22.603Z,1.76
2019-05-15T11:03:02.024Z,1.68
2019-05-15T11:04:42.000Z,1.74
2019-05-15T11:06:21.795Z,1.78
2019-05-15T11:08:01.616Z,1.97
2019-05-15T11:09:43.898Z,1.89
2019-05-15T11:11:23.891Z,1.7
2019-05-15T11:13:03.269Z,1.88
2019-05-15T11:14:42.758Z,1.82
2019-05-15T11:18:04.407Z,1.75
2019-05-15T11:21:28.038Z,1.92
2019-05-15T11:23:09.670Z,1.75
2019-05-15T11:26:39.041Z,2
2019-05-15T11:28:18.744Z,1.74
2019-05-15T11:30:00.275Z,1.86
2019-05-15T11:31:42.527Z,1.85
2019-05-15T11:33:22.587Z,1.89
2019-05-15T11:35:05.864Z,1.78
2019-05-15T11:36:47.899Z,1.69
2019-05-15T11:38:30.539Z,1.8
2019-05-15T11:40:13.237Z,1.62
2019-05-15T11:41:53.042Z,1.74
2019-05-15T11:43:32.583Z,1.71
2019-05-15T11:45:12.062Z,1.87
2019-05-15T11:46:53.151Z,1.68
2019-05-15T11:48:33.411Z,2.17
2019-05-15T11:50:13.180Z,4.11
2019-05-15T11:51:52.828Z,2.73
2019-05-15T11:53:32.208Z,1.74
2019-05-15T11:55:11.947Z,1.84
2019-05-15T11:56:52.398Z,1.8
2019-05-15T11:58:31.793Z,1.69
2019-05-15T12:00:30.274Z,1.74
2019-05-15T12:02:20.590Z,1.8
2019-05-15T12:04:01.989Z,1.66
2019-05-15T12:05:42.093Z,1.54
2019-05-15T12:07:21.081Z,1.74
2019-05-15T12:09:02.695Z,1.66
2019-05-15T12:10:42.350Z,1.75
2019-05-15T12:12:21.913Z,1.69
2019-05-15T12:14:01.464Z,1.69
2019-05-15T12:15:42.308Z,1.63
2019-05-15T12:17:22.281Z,1.65
2019-05-15T12:19:18.554Z,1.63
2019-05-15T12:24:42.715Z,1.63
2019-05-15T12:26:22.307Z,1.65
2019-05-15T12:28:03.070Z,1.64
2019-05-15T12:29:43.381Z,1.68
2019-05-15T12:31:27.938Z,1.78
2019-05-15T12:33:09.167Z,1.73
2019-05-15T12:36:56.580Z,1.72
